Barney, Georgia
Current Conditions -  °F | °C
As of 9:55 PM on Wednesday 26 Nov 2014 (Local Time) from KMGR Reporting Station
Clear Clear  
Wind Chill: 46°   Ceiling: Unl
Heat Index: 46°   Visibility: 10mi
Dew Point: 37°   Wind: 0mph
Humidity: 71%   Direction: NA
Pressure: 30.2"   Gusts: NA
Location:  31.01°N, 83.51°W
Report Text: KMGR 270255Z AUTO 00000KT 10SM CLR 08/03 A3020 RMK AO2
Loading
Personal Weather Stations






























Interactive Weather Map New forecast layout! Learn more

10-Day Weather Forecast

Advertisements
Track Severe Weather on mobile